Time;durP1;ratioP1;P1;durP2;ratioP2;P2;SDS_P1;SDS_P2;PMS_P1;PMS_P2;Temp;Humidity;BMP_temperature;BMP_pressure;BME280_temperature;BME280_humidity;BME280_pressure;Samples;Min_cycle;Max_cycle;Signal;HPM_P1;HPM_P2
2024/01/14 00:00:33;;;;;;;2.50;2.30;;;;;;;;;;4978769;28;20207;-80
2024/01/14 00:03:02;;;;;;;2.28;2.08;;;;;;;;;;4982223;28;20291;-81
2024/01/14 00:05:29;;;;;;;2.35;2.15;;;;;;;;;;4981469;28;20226;-80
2024/01/14 00:07:56;;;;;;;1.83;1.70;;;;;;;;;;4981991;28;20294;-81
2024/01/14 00:10:24;;;;;;;1.88;1.70;;;;;;;;;;4980735;28;20210;-80
2024/01/14 00:12:51;;;;;;;1.80;1.70;;;;;;;;;;4980972;28;20212;-81
2024/01/14 00:15:19;;;;;;;1.85;1.73;;;;;;;;;;4980297;28;20230;-80
2024/01/14 00:17:47;;;;;;;2.30;2.10;;;;;;;;;;4980105;28;20671;-81
2024/01/14 00:20:16;;;;;;;3.28;2.97;;;;;;;;;;4980749;28;20196;-81
2024/01/14 00:22:43;;;;;;;2.50;2.30;;;;;;;;;;4980417;28;20739;-80
2024/01/14 00:25:12;;;;;;;2.90;2.70;;;;;;;;;;4980458;28;20234;-79
2024/01/14 00:27:40;;;;;;;2.30;2.10;;;;;;;;;;4980452;28;20216;-81
2024/01/14 00:30:08;;;;;;;2.20;2.00;;;;;;;;;;4980325;28;20226;-80
2024/01/14 00:32:36;;;;;;;2.17;2.00;;;;;;;;;;4980942;28;20239;-82
2024/01/14 00:35:04;;;;;;;2.35;2.15;;;;;;;;;;4986427;28;20698;-80
2024/01/14 00:37:33;;;;;;;2.28;1.95;;;;;;;;;;5000084;28;20746;-81
2024/01/14 00:40:00;;;;;;;1.95;1.85;;;;;;;;;;5000449;28;20202;-81
2024/01/14 00:42:28;;;;;;;2.05;1.95;;;;;;;;;;4980558;28;20211;-81
2024/01/14 00:44:55;;;;;;;2.20;2.03;;;;;;;;;;4980881;28;20279;-80
2024/01/14 00:47:23;;;;;;;2.05;1.92;;;;;;;;;;4980042;28;20291;-81
2024/01/14 00:49:50;;;;;;;1.98;1.88;;;;;;;;;;4980459;28;20220;-81
2024/01/14 00:52:18;;;;;;;2.00;1.90;;;;;;;;;;4979899;28;20583;-80
2024/01/14 00:54:47;;;;;;;1.67;1.58;;;;;;;;;;4979657;28;20311;-80
2024/01/14 00:57:15;;;;;;;3.08;2.40;;;;;;;;;;4979713;28;20204;-81
2024/01/14 00:59:42;;;;;;;2.00;1.90;;;;;;;;;;4979721;28;20203;-80
2024/01/14 01:02:10;;;;;;;1.83;1.73;;;;;;;;;;4980384;28;20205;-80
2024/01/14 01:04:37;;;;;;;1.50;1.40;;;;;;;;;;4980056;28;20231;-81
2024/01/14 01:07:05;;;;;;;2.00;1.90;;;;;;;;;;4979911;28;20201;-81
2024/01/14 01:09:32;;;;;;;3.25;2.55;;;;;;;;;;4979699;28;20232;-81
2024/01/14 01:12:01;;;;;;;2.67;2.47;;;;;;;;;;4980259;28;20295;-79
2024/01/14 01:14:29;;;;;;;3.47;2.50;;;;;;;;;;4979911;28;20228;-82
2024/01/14 01:16:56;;;;;;;2.85;2.65;;;;;;;;;;4979787;28;20218;-81
2024/01/14 01:19:23;;;;;;;3.00;2.70;;;;;;;;;;4979770;28;20200;-81
2024/01/14 01:21:51;;;;;;;3.08;2.78;;;;;;;;;;4980273;28;20660;-81
2024/01/14 01:24:19;;;;;;;3.47;3.08;;;;;;;;;;4979842;28;20611;-81
2024/01/14 01:26:46;;;;;;;2.63;2.42;;;;;;;;;;4979979;28;20219;-80
2024/01/14 01:29:15;;;;;;;2.45;2.25;;;;;;;;;;4979809;28;20228;-81
2024/01/14 01:31:43;;;;;;;2.22;2.03;;;;;;;;;;4979922;28;20667;-79
2024/01/14 01:34:10;;;;;;;2.80;2.60;;;;;;;;;;4980420;28;20228;-80
2024/01/14 01:36:38;;;;;;;2.63;2.42;;;;;;;;;;4979682;28;20214;-81
2024/01/14 01:39:05;;;;;;;2.30;2.10;;;;;;;;;;4979355;28;20685;-80
2024/01/14 01:41:32;;;;;;;2.05;1.90;;;;;;;;;;4979453;28;20200;-81
2024/01/14 01:44:00;;;;;;;2.20;2.00;;;;;;;;;;4979260;28;20291;-80
2024/01/14 01:46:29;;;;;;;2.60;2.40;;;;;;;;;;4979607;28;20222;-80
2024/01/14 01:48:56;;;;;;;3.03;2.75;;;;;;;;;;4979462;28;20208;-81
2024/01/14 01:51:24;;;;;;;2.90;2.70;;;;;;;;;;4978751;28;20227;-81
2024/01/14 01:53:52;;;;;;;2.67;2.47;;;;;;;;;;4978775;28;20204;-80
2024/01/14 01:56:19;;;;;;;2.67;2.28;;;;;;;;;;4979672;28;20290;-81
2024/01/14 01:58:47;;;;;;;3.20;2.97;;;;;;;;;;4979910;28;20204;-82
2024/01/14 02:01:15;;;;;;;2.70;2.50;;;;;;;;;;4979219;28;20206;-81
2024/01/14 02:03:44;;;;;;;2.70;2.50;;;;;;;;;;4979017;28;20586;-81
2024/01/14 02:06:11;;;;;;;2.63;2.42;;;;;;;;;;4979475;28;20295;-80
2024/01/14 02:08:39;;;;;;;4.45;3.03;;;;;;;;;;4979103;28;20211;-80
2024/01/14 02:11:06;;;;;;;3.83;3.53;;;;;;;;;;4978137;28;20296;-82
2024/01/14 02:13:34;;;;;;;2.83;2.58;;;;;;;;;;4978312;28;20204;-81
2024/01/14 02:16:01;;;;;;;2.95;2.75;;;;;;;;;;4978295;28;20288;-81
2024/01/14 02:18:29;;;;;;;2.65;2.45;;;;;;;;;;4978523;28;20910;-80
2024/01/14 02:20:58;;;;;;;2.92;2.63;;;;;;;;;;4978357;28;20276;-81
2024/01/14 02:23:27;;;;;;;2.95;2.60;;;;;;;;;;4978006;28;20295;-80
2024/01/14 02:25:56;;;;;;;3.92;3.47;;;;;;;;;;4978180;28;20236;-81
2024/01/14 02:28:24;;;;;;;3.60;3.30;;;;;;;;;;4978676;28;20685;-80
2024/01/14 02:30:51;;;;;;;3.13;2.75;;;;;;;;;;4978970;28;20665;-79
2024/01/14 02:33:19;;;;;;;2.65;2.45;;;;;;;;;;4978776;28;20672;-79
2024/01/14 02:35:46;;;;;;;3.40;3.08;;;;;;;;;;4978819;28;20256;-80
2024/01/14 02:38:14;;;;;;;2.80;2.60;;;;;;;;;;4978681;28;20207;-79
2024/01/14 02:40:41;;;;;;;4.38;3.33;;;;;;;;;;4978453;28;20307;-78
2024/01/14 02:43:10;;;;;;;5.57;2.88;;;;;;;;;;4978526;28;20208;-79
2024/01/14 02:45:37;;;;;;;3.63;3.13;;;;;;;;;;4978787;28;20224;-80
2024/01/14 02:48:06;;;;;;;3.45;3.05;;;;;;;;;;4977758;28;20298;-80
2024/01/14 02:50:33;;;;;;;3.88;2.92;;;;;;;;;;4978247;28;20219;-79
2024/01/14 02:53:01;;;;;;;4.03;3.63;;;;;;;;;;4977810;28;20210;-82
2024/01/14 02:55:28;;;;;;;4.07;3.33;;;;;;;;;;4977963;28;20734;-81
2024/01/14 02:57:57;;;;;;;4.72;3.55;;;;;;;;;;4978929;28;20208;-80
2024/01/14 03:00:25;;;;;;;5.25;4.32;;;;;;;;;;4979420;28;20201;-81
2024/01/14 03:02:53;;;;;;;4.47;3.30;;;;;;;;;;4978490;28;20210;-82
2024/01/14 03:05:20;;;;;;;4.70;3.15;;;;;;;;;;4978665;28;20228;-81
2024/01/14 03:07:48;;;;;;;4.55;3.33;;;;;;;;;;4978390;28;20207;-81
2024/01/14 03:10:15;;;;;;;3.50;3.20;;;;;;;;;;4975632;28;20753;-81
2024/01/14 03:12:43;;;;;;;4.82;4.32;;;;;;;;;;4975775;28;20739;-81
2024/01/14 03:15:11;;;;;;;4.18;3.40;;;;;;;;;;4975560;28;20767;-81
2024/01/14 03:17:39;;;;;;;4.05;2.60;;;;;;;;;;4976510;28;20296;-81
2024/01/14 03:20:09;;;;;;;3.60;3.00;;;;;;;;;;4976330;28;20232;-81
2024/01/14 03:22:36;;;;;;;4.07;2.97;;;;;;;;;;4975998;28;20204;-80
2024/01/14 03:25:04;;;;;;;5.03;3.10;;;;;;;;;;4976036;28;20266;-81
2024/01/14 03:27:31;;;;;;;6.05;3.92;;;;;;;;;;4976483;28;20296;-81
2024/01/14 03:29:59;;;;;;;4.30;2.50;;;;;;;;;;4975702;28;20210;-80
2024/01/14 03:32:26;;;;;;;3.53;3.00;;;;;;;;;;4975918;28;20200;-80
2024/01/14 03:34:55;;;;;;;3.25;2.95;;;;;;;;;;4975682;28;20224;-79
2024/01/14 03:37:22;;;;;;;2.90;2.70;;;;;;;;;;4975647;28;20244;-80
2024/01/14 03:39:50;;;;;;;3.95;3.22;;;;;;;;;;4976083;28;20236;-80
2024/01/14 03:42:18;;;;;;;3.50;3.20;;;;;;;;;;4975829;28;20287;-78
2024/01/14 03:44:45;;;;;;;3.85;3.33;;;;;;;;;;4976228;28;20224;-80
2024/01/14 03:47:13;;;;;;;3.75;3.45;;;;;;;;;;4976025;28;20210;-80
2024/01/14 03:49:40;;;;;;;2.63;2.42;;;;;;;;;;4975600;28;20207;-80
2024/01/14 03:52:09;;;;;;;2.65;2.40;;;;;;;;;;4975092;28;20295;-81
2024/01/14 03:54:37;;;;;;;3.55;3.25;;;;;;;;;;4975792;28;20586;-80
2024/01/14 03:57:04;;;;;;;3.17;2.78;;;;;;;;;;4975649;28;20204;-81
2024/01/14 03:59:32;;;;;;;2.75;2.55;;;;;;;;;;4975552;28;20240;-79
2024/01/14 04:01:59;;;;;;;4.82;3.90;;;;;;;;;;4975352;28;20201;-80
2024/01/14 04:04:27;;;;;;;4.38;3.03;;;;;;;;;;4975098;28;20311;-81
2024/01/14 04:06:55;;;;;;;3.20;2.90;;;;;;;;;;4975380;28;20200;-81
2024/01/14 04:09:24;;;;;;;3.30;3.00;;;;;;;;;;4975645;28;20304;-81
2024/01/14 04:11:51;;;;;;;4.95;3.35;;;;;;;;;;4974910;28;20231;-81
2024/01/14 04:14:18;;;;;;;4.15;3.75;;;;;;;;;;4975133;28;20228;-79
2024/01/14 04:16:46;;;;;;;2.85;2.50;;;;;;;;;;4975538;28;20637;-81
2024/01/14 04:19:14;;;;;;;3.35;3.05;;;;;;;;;;4975341;28;20244;-80
2024/01/14 04:21:41;;;;;;;3.28;3.03;;;;;;;;;;4976172;28;20200;-79
2024/01/14 04:24:09;;;;;;;4.65;3.50;;;;;;;;;;4974873;28;20263;-79
2024/01/14 04:26:38;;;;;;;4.47;3.33;;;;;;;;;;4974582;28;20761;-79
2024/01/14 04:29:05;;;;;;;4.25;3.72;;;;;;;;;;4975035;28;20291;-79
2024/01/14 04:31:33;;;;;;;3.40;3.10;;;;;;;;;;4975505;28;20251;-79
2024/01/14 04:34:03;;;;;;;4.20;2.72;;;;;;;;;;4975538;28;20311;-80
2024/01/14 04:36:30;;;;;;;3.70;3.25;;;;;;;;;;4976032;28;20204;-81
2024/01/14 04:38:58;;;;;;;3.65;2.97;;;;;;;;;;4975424;28;20200;-79
2024/01/14 04:41:25;;;;;;;3.60;3.25;;;;;;;;;;4975237;28;20638;-79
2024/01/14 04:43:54;;;;;;;4.78;4.00;;;;;;;;;;4975436;28;20287;-80
2024/01/14 04:46:21;;;;;;;4.22;3.40;;;;;;;;;;4975367;28;20203;-80
2024/01/14 04:48:49;;;;;;;3.80;3.40;;;;;;;;;;4978709;28;20208;-82
2024/01/14 04:51:17;;;;;;;5.65;3.97;;;;;;;;;;4979572;28;20228;-81
2024/01/14 04:53:45;;;;;;;4.30;3.28;;;;;;;;;;4979080;28;20215;-81
2024/01/14 04:56:12;;;;;;;4.45;3.40;;;;;;;;;;4979292;28;20204;-81
2024/01/14 04:58:39;;;;;;;3.90;3.42;;;;;;;;;;4979260;28;20268;-81
2024/01/14 05:01:08;;;;;;;3.95;3.50;;;;;;;;;;4979116;28;20209;-81
2024/01/14 05:03:36;;;;;;;5.15;4.22;;;;;;;;;;4978525;28;20296;-81
2024/01/14 05:06:03;;;;;;;4.13;3.38;;;;;;;;;;4978921;28;20288;-81
2024/01/14 05:08:31;;;;;;;6.53;4.43;;;;;;;;;;4978974;28;20251;-81
2024/01/14 05:10:59;;;;;;;5.50;3.85;;;;;;;;;;4978661;28;20300;-80
2024/01/14 05:13:26;;;;;;;8.75;3.92;;;;;;;;;;4978639;28;20200;-81
2024/01/14 05:15:54;;;;;;;5.85;4.13;;;;;;;;;;4978796;28;20220;-81
2024/01/14 05:18:23;;;;;;;4.75;4.35;;;;;;;;;;4978932;28;20201;-81
2024/01/14 05:20:50;;;;;;;5.05;4.28;;;;;;;;;;4978294;28;20204;-80
2024/01/14 05:23:18;;;;;;;6.18;4.47;;;;;;;;;;4978318;28;20707;-80
2024/01/14 05:25:45;;;;;;;5.40;3.33;;;;;;;;;;4977792;28;20798;-79
2024/01/14 05:28:13;;;;;;;4.38;3.88;;;;;;;;;;4978505;28;20207;-80
2024/01/14 05:30:40;;;;;;;6.38;4.47;;;;;;;;;;4978999;28;20299;-81
2024/01/14 05:33:08;;;;;;;5.47;4.50;;;;;;;;;;4978487;28;20224;-81
2024/01/14 05:35:36;;;;;;;5.95;4.60;;;;;;;;;;4979031;28;20228;-81
2024/01/14 05:38:04;;;;;;;5.43;3.78;;;;;;;;;;4978694;28;20222;-80
2024/01/14 05:40:32;;;;;;;5.80;4.30;;;;;;;;;;4978468;28;20204;-79
2024/01/14 05:42:59;;;;;;;5.32;4.28;;;;;;;;;;4978283;28;20228;-79
2024/01/14 05:45:27;;;;;;;4.40;3.42;;;;;;;;;;4978296;28;20220;-81
2024/01/14 05:47:54;;;;;;;4.13;3.65;;;;;;;;;;4977740;28;20204;-81
2024/01/14 05:50:21;;;;;;;6.88;4.47;;;;;;;;;;4978395;28;20660;-81
2024/01/14 05:52:50;;;;;;;4.70;4.30;;;;;;;;;;4978279;28;20238;-81
2024/01/14 05:55:18;;;;;;;5.20;4.70;;;;;;;;;;4978482;28;20315;-81
2024/01/14 05:57:46;;;;;;;3.58;3.28;;;;;;;;;;4977947;28;20214;-81
2024/01/14 06:00:14;;;;;;;4.18;3.78;;;;;;;;;;4977649;28;20209;-81
2024/01/14 06:02:42;;;;;;;4.72;4.25;;;;;;;;;;4977765;28;20292;-81
2024/01/14 06:05:09;;;;;;;4.63;3.30;;;;;;;;;;4978079;28;20733;-81
2024/01/14 06:07:37;;;;;;;4.57;3.45;;;;;;;;;;4978029;28;20204;-82
2024/01/14 06:10:06;;;;;;;3.92;3.63;;;;;;;;;;4978304;28;20238;-79
2024/01/14 06:12:34;;;;;;;5.18;4.05;;;;;;;;;;4978078;28;20255;-81
2024/01/14 06:15:01;;;;;;;4.40;4.00;;;;;;;;;;4977300;28;20711;-80
2024/01/14 06:17:29;;;;;;;4.93;3.80;;;;;;;;;;4977393;28;20690;-80
2024/01/14 06:19:56;;;;;;;5.47;4.32;;;;;;;;;;4977773;28;20747;-80
2024/01/14 06:22:24;;;;;;;5.95;4.32;;;;;;;;;;4977110;28;20288;-81
2024/01/14 06:24:51;;;;;;;6.88;5.13;;;;;;;;;;4977002;28;20228;-81
2024/01/14 06:27:20;;;;;;;6.43;4.60;;;;;;;;;;4977717;28;20204;-80
2024/01/14 06:29:47;;;;;;;4.00;3.58;;;;;;;;;;4977131;28;20215;-81
2024/01/14 06:32:15;;;;;;;4.82;3.83;;;;;;;;;;4977171;28;20335;-82
2024/01/14 06:34:42;;;;;;;10.52;5.60;;;;;;;;;;4977281;28;20288;-81
2024/01/14 06:37:10;;;;;;;6.10;4.40;;;;;;;;;;4977602;28;20282;-81
2024/01/14 06:39:37;;;;;;;4.55;3.33;;;;;;;;;;4977038;28;20302;-81
2024/01/14 06:42:06;;;;;;;5.35;4.47;;;;;;;;;;4977055;28;20295;-80
2024/01/14 06:44:34;;;;;;;5.82;4.80;;;;;;;;;;4982175;28;20248;-80
2024/01/14 06:47:02;;;;;;;5.53;4.47;;;;;;;;;;4983168;28;20295;-79
2024/01/14 06:49:29;;;;;;;4.65;3.60;;;;;;;;;;4984089;28;20678;-79
2024/01/14 06:51:57;;;;;;;4.50;3.28;;;;;;;;;;4984356;28;20240;-78
2024/01/14 06:54:24;;;;;;;4.65;4.25;;;;;;;;;;4985125;28;20718;-78
2024/01/14 06:56:52;;;;;;;3.08;2.65;;;;;;;;;;4985201;28;20208;-78
2024/01/14 06:59:21;;;;;;;5.13;3.10;;;;;;;;;;4983284;28;20210;-80
2024/01/14 07:01:50;;;;;;;2.47;2.28;;;;;;;;;;4983712;28;20204;-80
2024/01/14 07:04:17;;;;;;;4.75;3.13;;;;;;;;;;4981775;28;20212;-80
2024/01/14 07:06:45;;;;;;;3.25;2.50;;;;;;;;;;4983486;28;20243;-80
2024/01/14 07:09:13;;;;;;;2.30;2.10;;;;;;;;;;4983535;28;20275;-79
2024/01/14 07:11:40;;;;;;;2.42;2.22;;;;;;;;;;4983924;28;20663;-79
2024/01/14 07:14:08;;;;;;;2.70;2.40;;;;;;;;;;4983555;28;20319;-79
2024/01/14 07:16:36;;;;;;;4.22;3.08;;;;;;;;;;4984175;28;20304;-79
2024/01/14 07:19:05;;;;;;;2.70;2.50;;;;;;;;;;4983145;28;20204;-79
2024/01/14 07:21:32;;;;;;;2.78;2.22;;;;;;;;;;4981958;28;20213;-79
2024/01/14 07:24:00;;;;;;;2.88;2.60;;;;;;;;;;4983596;28;20324;-78
2024/01/14 07:26:27;;;;;;;2.53;2.33;;;;;;;;;;4978718;28;20224;-79
2024/01/14 07:28:55;;;;;;;2.92;2.55;;;;;;;;;;4977607;28;20284;-79
2024/01/14 07:31:26;;;;;;;2.50;2.30;;;;;;;;;;4982951;28;20626;-78
2024/01/14 07:33:53;;;;;;;2.45;2.25;;;;;;;;;;4978338;28;20212;-79
2024/01/14 07:36:22;;;;;;;2.75;2.25;;;;;;;;;;4982426;28;20626;-80
2024/01/14 07:38:51;;;;;;;2.63;2.40;;;;;;;;;;4977790;28;20243;-78
2024/01/14 07:41:19;;;;;;;2.10;1.90;;;;;;;;;;4982152;28;20616;-80
2024/01/14 07:43:47;;;;;;;2.90;2.70;;;;;;;;;;4981580;28;20204;-80
2024/01/14 07:46:14;;;;;;;2.58;2.38;;;;;;;;;;4981149;28;20264;-79
2024/01/14 07:48:42;;;;;;;2.55;2.28;;;;;;;;;;4981449;28;20208;-79
2024/01/14 07:51:10;;;;;;;2.83;2.05;;;;;;;;;;4981388;28;20204;-79
2024/01/14 07:53:38;;;;;;;2.28;2.08;;;;;;;;;;4982060;28;20247;-79
2024/01/14 07:56:07;;;;;;;2.40;2.20;;;;;;;;;;4982263;28;20228;-80
2024/01/14 07:58:34;;;;;;;2.75;2.55;;;;;;;;;;4981787;28;20207;-80
2024/01/14 08:01:02;;;;;;;2.13;1.92;;;;;;;;;;4982526;28;20242;-80
2024/01/14 08:03:29;;;;;;;2.08;1.88;;;;;;;;;;4986314;28;20283;-80
2024/01/14 08:05:57;;;;;;;2.05;1.85;;;;;;;;;;4981412;28;20228;-80
2024/01/14 08:08:24;;;;;;;1.58;1.48;;;;;;;;;;4981051;28;20633;-79
2024/01/14 08:10:54;;;;;;;2.15;1.65;;;;;;;;;;4982097;28;20771;-79
2024/01/14 08:13:21;;;;;;;2.13;2.03;;;;;;;;;;4982002;28;20779;-79
2024/01/14 08:15:49;;;;;;;1.83;1.73;;;;;;;;;;4981269;28;20722;-79
2024/01/14 08:18:16;;;;;;;1.90;1.60;;;;;;;;;;4983526;28;20259;-79
2024/01/14 08:20:44;;;;;;;2.85;2.63;;;;;;;;;;4983020;28;20261;-78
2024/01/14 08:23:11;;;;;;;2.13;1.92;;;;;;;;;;4989261;28;20212;-78
2024/01/14 08:25:39;;;;;;;1.73;1.63;;;;;;;;;;4986743;28;20319;-78
2024/01/14 08:28:08;;;;;;;1.58;1.48;;;;;;;;;;4984256;28;20212;-80
2024/01/14 08:30:36;;;;;;;1.70;1.60;;;;;;;;;;4980521;28;20208;-79
2024/01/14 08:33:03;;;;;;;1.50;1.40;;;;;;;;;;4984483;28;20239;-79
2024/01/14 08:35:31;;;;;;;2.35;2.10;;;;;;;;;;4984155;28;20312;-78
2024/01/14 08:37:59;;;;;;;2.50;2.30;;;;;;;;;;4986166;28;20272;-79
2024/01/14 08:40:27;;;;;;;1.77;1.67;;;;;;;;;;4985837;28;20739;-80
2024/01/14 08:42:55;;;;;;;2.08;1.90;;;;;;;;;;4985339;28;20271;-79
2024/01/14 08:45:23;;;;;;;2.22;2.10;;;;;;;;;;4986018;28;20303;-78
2024/01/14 08:47:51;;;;;;;1.10;1.10;;;;;;;;;;4981932;28;20212;-79
2024/01/14 08:50:20;;;;;;;1.33;1.23;;;;;;;;;;4985895;28;20254;-80
2024/01/14 08:52:48;;;;;;;1.73;1.63;;;;;;;;;;4985701;28;20208;-79
2024/01/14 08:55:15;;;;;;;1.70;1.60;;;;;;;;;;4984937;28;20227;-79
2024/01/14 08:57:42;;;;;;;2.17;2.00;;;;;;;;;;4988530;28;20263;-79
2024/01/14 09:00:11;;;;;;;2.60;2.40;;;;;;;;;;4985162;28;20212;-79
2024/01/14 09:02:39;;;;;;;1.67;1.58;;;;;;;;;;4986049;28;20664;-79
2024/01/14 09:05:07;;;;;;;1.83;1.73;;;;;;;;;;4985998;28;20638;-79
2024/01/14 09:07:36;;;;;;;1.70;1.60;;;;;;;;;;4987504;28;20303;-79
2024/01/14 09:10:03;;;;;;;2.30;2.10;;;;;;;;;;4986628;28;20230;-80
2024/01/14 09:12:31;;;;;;;1.45;1.35;;;;;;;;;;4986656;28;20642;-79
2024/01/14 09:14:58;;;;;;;1.73;1.60;;;;;;;;;;4986440;28;20299;-79
2024/01/14 09:17:26;;;;;;;1.90;1.80;;;;;;;;;;4985574;28;20303;-79
2024/01/14 09:19:54;;;;;;;1.95;1.85;;;;;;;;;;4985156;28;20284;-80
2024/01/14 09:22:22;;;;;;;1.70;1.60;;;;;;;;;;4985363;28;20303;-80
2024/01/14 09:24:49;;;;;;;2.22;2.03;;;;;;;;;;4983224;28;20236;-78
2024/01/14 09:27:17;;;;;;;1.90;1.77;;;;;;;;;;4982568;28;20654;-79
2024/01/14 09:29:44;;;;;;;2.33;2.13;;;;;;;;;;4982628;28;20247;-78
2024/01/14 09:32:12;;;;;;;2.28;1.83;;;;;;;;;;4985332;28;20299;-78
2024/01/14 09:34:40;;;;;;;1.98;1.88;;;;;;;;;;4983541;28;20236;-78
2024/01/14 09:37:09;;;;;;;2.10;1.90;;;;;;;;;;4984400;28;20676;-79
2024/01/14 09:39:36;;;;;;;2.72;1.73;;;;;;;;;;4983597;28;20232;-80
2024/01/14 09:42:09;;;;;;;1.65;1.55;;;;;;;;;;4983294;28;20296;-80
2024/01/14 09:44:36;;;;;;;1.63;1.52;;;;;;;;;;4983037;28;20662;-79
2024/01/14 09:47:04;;;;;;;1.58;1.40;;;;;;;;;;4985702;28;20715;-79
2024/01/14 09:49:32;;;;;;;2.17;1.98;;;;;;;;;;4983553;28;20287;-79
2024/01/14 09:52:00;;;;;;;1.65;1.55;;;;;;;;;;4990790;28;20211;-79
2024/01/14 09:54:29;;;;;;;1.73;1.63;;;;;;;;;;4984206;28;20286;-78
2024/01/14 09:57:00;;;;;;;1.80;1.70;;;;;;;;;;4984087;28;20620;-78
2024/01/14 09:59:28;;;;;;;2.42;2.22;;;;;;;;;;4984101;28;20295;-78
2024/01/14 10:01:55;;;;;;;3.03;1.98;;;;;;;;;;4984757;28;20275;-78
2024/01/14 10:04:23;;;;;;;2.85;2.25;;;;;;;;;;4983558;28;20306;-80
2024/01/14 10:06:51;;;;;;;2.60;2.40;;;;;;;;;;4980117;28;20271;-79
2024/01/14 10:09:18;;;;;;;2.47;2.25;;;;;;;;;;4985318;28;20275;-79
2024/01/14 10:11:47;;;;;;;2.15;1.95;;;;;;;;;;4983320;28;20200;-80
2024/01/14 10:14:15;;;;;;;2.40;1.95;;;;;;;;;;4983048;28;20256;-79
2024/01/14 10:16:43;;;;;;;3.10;2.35;;;;;;;;;;4986596;28;20379;-79
2024/01/14 10:19:11;;;;;;;2.40;2.20;;;;;;;;;;4983235;28;20232;-79
2024/01/14 10:21:38;;;;;;;3.25;2.95;;;;;;;;;;4985850;28;20212;-79
2024/01/14 10:24:06;;;;;;;3.05;2.75;;;;;;;;;;4982799;28;20564;-79
2024/01/14 10:26:34;;;;;;;3.47;3.17;;;;;;;;;;4981172;28;20293;-79
2024/01/14 10:29:04;;;;;;;2.75;2.50;;;;;;;;;;4983483;28;20889;-78
2024/01/14 10:31:32;;;;;;;2.70;2.50;;;;;;;;;;4979014;28;20268;-78
2024/01/14 10:34:02;;;;;;;2.95;2.67;;;;;;;;;;4980441;28;20243;-79
2024/01/14 10:36:29;;;;;;;2.47;2.22;;;;;;;;;;4982787;28;20232;-78
2024/01/14 10:38:59;;;;;;;3.28;2.97;;;;;;;;;;4982803;28;20932;-78
2024/01/14 10:41:27;;;;;;;2.75;2.55;;;;;;;;;;4982683;28;20204;-80
2024/01/14 10:43:55;;;;;;;3.80;2.90;;;;;;;;;;4987572;28;20676;-79
2024/01/14 10:46:24;;;;;;;2.60;2.40;;;;;;;;;;4981103;28;20569;-80
2024/01/14 10:48:59;;;;;;;2.90;2.70;;;;;;;;;;4979083;28;20271;-79
2024/01/14 10:51:33;;;;;;;3.13;2.83;;;;;;;;;;4984654;28;20274;-79
2024/01/14 10:54:11;;;;;;;4.03;3.65;;;;;;;;;;4988538;28;20653;-79
2024/01/14 10:56:41;;;;;;;2.70;2.50;;;;;;;;;;4983942;28;20308;-79
2024/01/14 10:59:10;;;;;;;4.78;4.28;;;;;;;;;;4984412;28;20232;-79
2024/01/14 11:01:44;;;;;;;2.70;2.50;;;;;;;;;;4987686;28;20264;-79
2024/01/14 11:04:12;;;;;;;2.85;2.47;;;;;;;;;;4981611;28;20243;-79
2024/01/14 11:06:40;;;;;;;2.92;2.72;;;;;;;;;;4982552;28;20236;-79
2024/01/14 11:09:07;;;;;;;3.35;3.05;;;;;;;;;;4981578;28;20668;-78
2024/01/14 11:11:43;;;;;;;2.88;2.63;;;;;;;;;;4982581;28;20299;-79
2024/01/14 11:14:15;;;;;;;2.85;2.58;;;;;;;;;;4981982;28;20295;-79
2024/01/14 11:16:49;;;;;;;4.13;3.72;;;;;;;;;;4981571;28;20251;-78
2024/01/14 11:19:21;;;;;;;3.15;2.85;;;;;;;;;;4982309;28;20342;-79
2024/01/14 11:21:57;;;;;;;3.83;3.13;;;;;;;;;;4981851;28;20219;-78
2024/01/14 11:24:27;;;;;;;3.35;3.05;;;;;;;;;;4981564;28;20232;-78
2024/01/14 11:26:55;;;;;;;3.50;3.20;;;;;;;;;;4980437;28;20248;-80
2024/01/14 11:29:33;;;;;;;3.45;2.88;;;;;;;;;;4984734;28;20219;-79
2024/01/14 11:32:10;;;;;;;3.58;3.28;;;;;;;;;;4982337;28;20287;-78
2024/01/14 11:34:59;;;;;;;5.75;4.03;;;;;;;;;;4981617;28;20231;-78
2024/01/14 11:37:40;;;;;;;4.10;3.80;;;;;;;;;;4982822;28;20599;-78
2024/01/14 11:40:26;;;;;;;3.63;3.30;;;;;;;;;;4982424;28;20211;-79
2024/01/14 11:43:05;;;;;;;4.10;3.50;;;;;;;;;;4982287;28;20214;-78
2024/01/14 11:45:42;;;;;;;4.78;3.35;;;;;;;;;;4982886;28;20629;-79
2024/01/14 11:48:13;;;;;;;6.35;5.70;;;;;;;;;;4984090;28;20291;-79
2024/01/14 11:50:41;;;;;;;5.13;4.38;;;;;;;;;;4981273;28;20283;-79
2024/01/14 11:53:10;;;;;;;4.97;4.45;;;;;;;;;;4982565;28;20598;-79
2024/01/14 11:55:38;;;;;;;4.07;3.72;;;;;;;;;;4982636;28;20231;-79
2024/01/14 11:58:17;;;;;;;5.63;3.75;;;;;;;;;;4981019;28;20705;-80
2024/01/14 12:00:46;;;;;;;4.07;3.67;;;;;;;;;;4981474;28;20200;-79
2024/01/14 12:03:18;;;;;;;6.35;4.05;;;;;;;;;;4981105;28;20731;-78
2024/01/14 12:05:46;;;;;;;3.88;3.35;;;;;;;;;;4988423;28;20228;-78
2024/01/14 12:08:14;;;;;;;4.60;3.65;;;;;;;;;;4981692;28;20207;-79
2024/01/14 12:10:41;;;;;;;3.42;3.13;;;;;;;;;;4986627;28;20216;-78
2024/01/14 12:13:09;;;;;;;4.30;3.83;;;;;;;;;;4983731;28;20276;-79
2024/01/14 12:15:37;;;;;;;3.60;3.30;;;;;;;;;;4980749;28;20259;-80
2024/01/14 12:18:05;;;;;;;6.55;4.50;;;;;;;;;;4981030;28;20234;-79
2024/01/14 12:20:34;;;;;;;4.00;3.60;;;;;;;;;;4979128;28;20210;-79
2024/01/14 12:23:04;;;;;;;3.42;3.13;;;;;;;;;;4981448;28;20656;-80
2024/01/14 12:25:32;;;;;;;6.63;3.60;;;;;;;;;;4976864;28;20236;-79
2024/01/14 12:28:00;;;;;;;4.20;3.38;;;;;;;;;;4976721;28;20204;-79
2024/01/14 12:30:32;;;;;;;4.13;3.67;;;;;;;;;;4979276;28;20284;-79
2024/01/14 12:33:04;;;;;;;5.07;4.00;;;;;;;;;;4980660;28;20267;-79
2024/01/14 12:35:36;;;;;;;3.22;2.92;;;;;;;;;;4980842;28;20259;-79
2024/01/14 12:38:04;;;;;;;3.80;3.17;;;;;;;;;;4981358;28;20291;-78
2024/01/14 12:40:33;;;;;;;3.28;2.90;;;;;;;;;;4981152;28;20769;-79
2024/01/14 12:43:01;;;;;;;4.07;3.70;;;;;;;;;;4981113;28;20227;-79
2024/01/14 12:45:29;;;;;;;5.28;4.13;;;;;;;;;;4980708;28;20221;-79
2024/01/14 12:48:01;;;;;;;4.65;4.13;;;;;;;;;;4980207;28;20295;-79
2024/01/14 12:50:29;;;;;;;4.07;3.72;;;;;;;;;;4980495;28;20291;-79
2024/01/14 12:53:07;;;;;;;4.43;3.92;;;;;;;;;;4982060;28;20271;-79
2024/01/14 12:55:35;;;;;;;4.18;3.78;;;;;;;;;;4981087;28;20231;-78
2024/01/14 12:58:03;;;;;;;5.15;4.25;;;;;;;;;;4981858;28;20655;-78
2024/01/14 13:00:30;;;;;;;3.90;3.50;;;;;;;;;;4981106;28;20851;-79
2024/01/14 13:02:58;;;;;;;4.60;4.20;;;;;;;;;;4986019;28;20242;-79
2024/01/14 13:05:26;;;;;;;4.55;3.70;;;;;;;;;;4983370;28;20308;-81
2024/01/14 13:07:54;;;;;;;4.63;4.20;;;;;;;;;;4980847;28;20271;-80
2024/01/14 13:10:23;;;;;;;3.55;3.28;;;;;;;;;;4984224;28;20227;-79
2024/01/14 13:12:50;;;;;;;4.07;3.50;;;;;;;;;;4979468;28;20227;-79
2024/01/14 13:15:18;;;;;;;4.55;4.13;;;;;;;;;;4980255;28;20260;-79
2024/01/14 13:17:46;;;;;;;4.25;3.85;;;;;;;;;;4984144;28;20311;-79
2024/01/14 13:20:13;;;;;;;4.75;3.88;;;;;;;;;;4984740;28;20291;-78
2024/01/14 13:22:42;;;;;;;4.60;4.18;;;;;;;;;;4988286;28;20221;-79
2024/01/14 13:25:10;;;;;;;4.32;3.80;;;;;;;;;;4982506;28;20231;-78
2024/01/14 13:27:38;;;;;;;3.92;3.50;;;;;;;;;;4983330;28;20201;-78
2024/01/14 13:30:09;;;;;;;4.30;3.90;;;;;;;;;;4982071;28;20219;-79
2024/01/14 13:32:38;;;;;;;3.90;3.53;;;;;;;;;;4983566;28;20208;-79
2024/01/14 13:35:08;;;;;;;3.17;2.88;;;;;;;;;;4986260;28;20230;-79
2024/01/14 13:37:37;;;;;;;3.90;3.50;;;;;;;;;;4983951;28;20687;-79
2024/01/14 13:40:06;;;;;;;4.78;4.00;;;;;;;;;;4984214;28;20830;-79
2024/01/14 13:42:34;;;;;;;3.97;3.45;;;;;;;;;;4984611;28;20199;-79
2024/01/14 13:45:06;;;;;;;3.45;3.15;;;;;;;;;;4984808;28;20688;-79
2024/01/14 13:47:34;;;;;;;3.42;3.13;;;;;;;;;;4984620;28;20671;-81
2024/01/14 13:50:01;;;;;;;3.25;2.95;;;;;;;;;;4986787;28;20299;-81
2024/01/14 13:52:29;;;;;;;2.53;2.33;;;;;;;;;;4984630;28;20204;-82
2024/01/14 13:54:57;;;;;;;3.28;3.00;;;;;;;;;;4985168;28;20240;-82
2024/01/14 13:57:24;;;;;;;3.20;2.90;;;;;;;;;;4984672;28;20283;-81
2024/01/14 13:59:52;;;;;;;2.85;2.63;;;;;;;;;;4986404;28;20272;-81
2024/01/14 14:02:21;;;;;;;2.40;2.20;;;;;;;;;;4984292;28;20205;-80
2024/01/14 14:04:48;;;;;;;3.83;3.45;;;;;;;;;;4983742;28;20216;-82
2024/01/14 14:07:16;;;;;;;3.00;2.75;;;;;;;;;;4985713;28;20243;-81
2024/01/14 14:09:43;;;;;;;3.25;2.83;;;;;;;;;;4984020;28;20204;-82
2024/01/14 14:12:12;;;;;;;3.00;2.70;;;;;;;;;;4984795;28;20294;-82
2024/01/14 14:14:40;;;;;;;2.95;2.65;;;;;;;;;;4985882;28;21056;-83
2024/01/14 14:17:07;;;;;;;5.28;3.45;;;;;;;;;;4986886;28;20255;-80
2024/01/14 14:19:36;;;;;;;3.30;3.03;;;;;;;;;;4986377;28;20287;-83
2024/01/14 14:22:03;;;;;;;4.05;3.60;;;;;;;;;;4983348;28;20271;-83
2024/01/14 14:24:32;;;;;;;2.63;2.30;;;;;;;;;;4981167;28;20789;-82
2024/01/14 14:26:59;;;;;;;3.20;2.90;;;;;;;;;;4986328;28;20243;-81
2024/01/14 14:29:27;;;;;;;3.80;2.90;;;;;;;;;;4984427;28;20200;-82
2024/01/14 14:31:55;;;;;;;4.53;3.95;;;;;;;;;;4987422;28;20654;-81
2024/01/14 14:34:22;;;;;;;5.25;3.33;;;;;;;;;;4982813;28;20228;-83
2024/01/14 14:36:51;;;;;;;4.15;3.75;;;;;;;;;;4978337;28;20641;-83
2024/01/14 14:39:19;;;;;;;5.38;4.05;;;;;;;;;;4987312;28;20547;-82
2024/01/14 14:41:47;;;;;;;4.68;3.60;;;;;;;;;;4988832;28;20204;-82
2024/01/14 14:44:15;;;;;;;4.13;3.08;;;;;;;;;;4983516;28;20262;-82
2024/01/14 14:46:42;;;;;;;2.75;2.55;;;;;;;;;;4982629;28;20239;-81
2024/01/14 14:49:09;;;;;;;3.40;3.05;;;;;;;;;;4987887;28;20299;-83